Time,TemperatureF,DewpointF,PressureIn,WindDirection,WindDirectionDegrees,WindSpeedMPH,WindSpeedGustMPH,Humidity,HourlyPrecipIn,Conditions,Clouds,dailyrainin,SoftwareType,DateUTC
2013-10-16 00:00:00,49.0,41.3,29.76,North,0,0.0,0.0,75,0.00,,,0.00,WUHU216HW,2013-10-16 05:00:00,
2013-10-16 00:05:00,49.0,41.3,29.76,North,0,0.0,0.0,75,0.00,,,0.00,WUHU216HW,2013-10-16 05:05:00,
2013-10-16 01:00:00,48.4,41.8,29.77,North,0,0.0,0.0,78,0.00,,,0.00,WUHU216HW,2013-10-16 06:00:00,
2013-10-16 01:05:00,48.4,41.8,29.77,North,0,0.0,0.0,78,0.00,,,0.00,WUHU216HW,2013-10-16 06:05:00,
2013-10-16 02:00:00,48.2,42.3,29.77,North,0,0.0,0.0,80,0.00,,,0.00,WUHU216HW,2013-10-16 07:00:00,
2013-10-16 02:05:00,48.2,42.3,29.77,North,0,0.0,0.0,80,0.00,,,0.00,WUHU216HW,2013-10-16 07:05:00,
2013-10-16 03:00:00,48.2,42.7,29.76,North,0,0.0,0.0,81,0.00,,,0.00,WUHU216HW,2013-10-16 08:00:00,
2013-10-16 03:05:00,48.2,42.7,29.76,North,0,0.0,0.0,81,0.00,,,0.00,WUHU216HW,2013-10-16 08:05:00,
2013-10-16 04:00:00,48.1,42.8,29.76,North,0,0.0,0.0,82,0.00,,,0.00,WUHU216HW,2013-10-16 09:00:00,
2013-10-16 04:05:00,48.1,42.8,29.76,North,0,0.0,0.0,82,0.00,,,0.00,WUHU216HW,2013-10-16 09:05:00,
2013-10-16 05:00:00,47.9,43.3,29.76,North,0,0.0,0.0,84,0.00,,,0.00,WUHU216HW,2013-10-16 10:00:00,
2013-10-16 05:05:00,47.9,43.3,29.76,North,0,0.0,0.0,84,0.00,,,0.00,WUHU216HW,2013-10-16 10:05:00,
2013-10-16 06:00:00,47.5,43.6,29.77,North,0,0.0,0.0,86,0.00,,,0.00,WUHU216HW,2013-10-16 11:00:00,
2013-10-16 06:05:00,47.5,43.6,29.77,North,0,0.0,0.0,86,0.00,,,0.00,WUHU216HW,2013-10-16 11:05:00,
2013-10-16 07:00:00,47.9,43.9,29.77,North,0,0.0,0.0,86,0.00,,,0.00,WUHU216HW,2013-10-16 12:00:00,
2013-10-16 07:05:00,47.9,43.9,29.77,North,0,0.0,0.0,86,0.00,,,0.00,WUHU216HW,2013-10-16 12:05:00,
2013-10-16 08:00:00,48.8,44.5,29.78,North,0,0.0,0.0,85,0.00,,,0.00,WUHU216HW,2013-10-16 13:00:00,
2013-10-16 08:05:00,48.8,44.5,29.78,North,0,0.0,0.0,85,0.00,,,0.00,WUHU216HW,2013-10-16 13:05:00,
2013-10-16 15:00:00,50.6,44.6,29.84,North,0,0.0,0.0,80,0.00,,,0.00,WUHU216HW,2013-10-16 20:00:00,
2013-10-16 15:01:00,50.6,44.6,29.84,North,0,0.0,0.0,80,0.00,,,0.00,WUHU216HW,2013-10-16 20:01:00,
2013-10-16 15:06:00,50.6,44.6,29.84,North,0,0.0,0.0,80,0.00,,,0.00,WUHU216HW,2013-10-16 20:06:00,
2013-10-16 16:00:00,49.5,44.5,29.84,North,0,0.0,0.0,83,0.00,,,0.00,WUHU216HW,2013-10-16 21:00:00,
2013-10-16 16:05:00,49.5,44.2,29.84,North,0,0.0,0.0,82,0.00,,,0.00,WUHU216HW,2013-10-16 21:05:00,
2013-10-16 16:10:00,49.7,44.4,29.84,North,0,0.0,0.0,82,0.00,,,0.00,WUHU216HW,2013-10-16 21:10:00,
2013-10-16 16:15:00,49.7,44.4,29.84,North,0,0.0,0.0,82,0.00,,,0.00,WUHU216HW,2013-10-16 21:15:00,
2013-10-16 16:20:00,49.7,44.4,29.84,North,0,0.0,0.0,82,0.00,,,0.00,WUHU216HW,2013-10-16 21:20:00,
2013-10-16 16:25:00,49.7,44.4,29.85,North,0,0.0,0.0,82,0.00,,,0.00,WUHU216HW,2013-10-16 21:25:00,
2013-10-16 16:30:00,49.5,44.2,29.84,North,0,0.0,0.0,82,0.00,,,0.00,WUHU216HW,2013-10-16 21:30:00,
2013-10-16 16:35:00,49.5,44.2,29.85,North,0,0.0,0.0,82,0.00,,,0.00,WUHU216HW,2013-10-16 21:35:00,
2013-10-16 16:40:00,49.5,44.2,29.85,North,0,0.0,0.0,82,0.00,,,0.00,WUHU216HW,2013-10-16 21:40:00,
2013-10-16 16:45:00,49.5,44.2,29.85,North,0,0.0,0.0,82,0.00,,,0.00,WUHU216HW,2013-10-16 21:45:00,
2013-10-16 16:50:00,49.5,44.2,29.85,North,0,0.0,0.0,82,0.00,,,0.00,WUHU216HW,2013-10-16 21:50:00,
2013-10-16 16:55:00,49.7,44.4,29.85,North,0,0.0,0.0,82,0.00,,,0.00,WUHU216HW,2013-10-16 21:55:00,
2013-10-16 17:00:00,49.7,44.4,29.85,North,0,0.0,0.0,82,0.00,,,0.00,WUHU216HW,2013-10-16 22:00:00,
2013-10-16 17:05:00,49.7,44.4,29.85,North,0,0.0,0.0,82,0.00,,,0.00,WUHU216HW,2013-10-16 22:05:00,
2013-10-16 18:00:00,48.8,43.8,29.86,North,0,0.0,0.0,83,0.00,,,0.00,WUHU216HW,2013-10-16 23:00:00,
2013-10-16 18:05:00,48.8,44.1,29.86,North,0,0.0,0.0,84,0.00,,,0.00,WUHU216HW,2013-10-16 23:05:00,
2013-10-16 18:10:00,48.6,43.9,29.86,North,0,0.0,0.0,84,0.00,,,0.00,WUHU216HW,2013-10-16 23:10:00,
2013-10-16 18:15:00,48.4,44.1,29.87,North,0,0.0,0.0,85,0.00,,,0.00,WUHU216HW,2013-10-16 23:15:00,
2013-10-16 18:20:00,48.2,43.9,29.87,North,0,0.0,0.0,85,0.00,,,0.00,WUHU216HW,2013-10-16 23:20:00,
2013-10-16 18:22:00,48.2,43.9,29.87,North,0,0.0,0.0,85,0.00,,,0.00,WUHU216HW,2013-10-16 23:22:00,
2013-10-16 18:25:00,48.2,43.9,29.87,North,0,0.0,0.0,85,0.00,,,0.00,WUHU216HW,2013-10-16 23:25:00,
2013-10-16 18:30:00,48.2,43.9,29.87,North,0,0.0,0.0,85,0.00,,,0.00,WUHU216HW,2013-10-16 23:30:00,
2013-10-16 20:00:00,46.4,43.1,29.89,North,0,0.0,0.0,88,0.00,,,0.00,WUHU216HW,2013-10-17 01:00:00,
2013-10-16 20:05:00,46.6,43.7,29.89,North,0,0.0,0.0,89,0.00,,,0.00,WUHU216HW,2013-10-17 01:05:00,
2013-10-16 20:10:00,46.6,43.3,29.89,North,0,0.0,0.0,88,0.00,,,0.00,WUHU216HW,2013-10-17 01:10:00,
2013-10-16 20:15:00,46.6,43.3,29.89,North,0,0.0,0.0,88,0.00,,,0.00,WUHU216HW,2013-10-17 01:15:00,
2013-10-16 20:20:00,46.6,43.3,29.89,North,0,0.0,0.0,88,0.00,,,0.00,WUHU216HW,2013-10-17 01:20:00,
2013-10-16 20:25:00,46.6,43.3,29.89,North,0,0.0,0.0,88,0.00,,,0.00,WUHU216HW,2013-10-17 01:25:00,
2013-10-16 20:30:00,46.8,43.5,29.89,North,0,0.0,0.0,88,0.00,,,0.00,WUHU216HW,2013-10-17 01:30:00,
2013-10-16 20:35:00,46.8,43.5,29.89,North,0,0.0,0.0,88,0.00,,,0.00,WUHU216HW,2013-10-17 01:35:00,
2013-10-16 20:40:00,46.8,43.5,29.89,North,0,0.0,0.0,88,0.00,,,0.00,WUHU216HW,2013-10-17 01:40:00,
2013-10-16 20:41:00,46.8,43.5,29.90,North,0,0.0,0.0,88,0.00,,,0.00,WUHU216HW,2013-10-17 01:41:00,
2013-10-16 20:45:00,46.8,43.5,29.90,North,0,0.0,0.0,88,0.00,,,0.00,WUHU216HW,2013-10-17 01:45:00,
2013-10-16 20:50:00,46.8,43.5,29.90,North,0,0.0,0.0,88,0.00,,,0.00,WUHU216HW,2013-10-17 01:50:00,
2013-10-16 21:00:00,46.8,43.5,29.90,North,0,0.0,0.0,88,0.00,,,0.00,WUHU216HW,2013-10-17 02:00:00,
2013-10-16 21:05:00,46.8,43.5,29.90,North,0,0.0,0.0,88,0.00,,,0.00,WUHU216HW,2013-10-17 02:05:00,
2013-10-16 22:00:00,46.6,43.3,29.91,North,0,0.0,0.0,88,0.00,,,0.00,WUHU216HW,2013-10-17 03:00:00,
2013-10-16 22:05:00,46.6,43.3,29.91,North,0,0.0,0.0,88,0.00,,,0.00,WUHU216HW,2013-10-17 03:05:00,
2013-10-16 23:00:00,46.1,43.1,29.91,North,0,0.0,0.0,89,0.01,,,0.00,WUHU216HW,2013-10-17 04:00:00,
2013-10-16 23:01:00,46.1,43.1,29.91,North,0,0.0,0.0,89,0.01,,,0.01,WUHU216HW,2013-10-17 04:01:00,
2013-10-16 23:06:00,46.1,43.1,29.91,North,0,0.0,0.0,89,0.01,,,0.01,WUHU216HW,2013-10-17 04:06:00,
2013-10-16 23:11:00,45.9,42.9,29.91,North,0,0.0,0.0,89,0.01,,,0.01,WUHU216HW,2013-10-17 04:11:00,
2013-10-16 23:16:00,45.9,42.9,29.91,North,0,0.0,0.0,89,0.01,,,0.01,WUHU216HW,2013-10-17 04:16:00,
2013-10-16 23:21:00,45.7,43.0,29.91,North,0,0.0,0.0,90,0.01,,,0.01,WUHU216HW,2013-10-17 04:21:00,
2013-10-16 23:26:00,45.7,43.0,29.91,North,0,0.0,0.0,90,0.01,,,0.01,WUHU216HW,2013-10-17 04:26:00,
2013-10-16 23:31:00,45.7,43.0,29.91,North,0,0.0,0.0,90,0.02,,,0.02,WUHU216HW,2013-10-17 04:31:00,
2013-10-16 23:36:00,45.5,42.8,29.90,North,0,0.0,0.0,90,0.02,,,0.02,WUHU216HW,2013-10-17 04:36:00,
2013-10-16 23:41:00,45.7,43.3,29.90,North,0,0.0,0.0,91,0.02,,,0.02,WUHU216HW,2013-10-17 04:41:00,
2013-10-16 23:46:00,45.7,43.0,29.90,North,0,0.0,0.0,90,0.02,,,0.02,WUHU216HW,2013-10-17 04:46:00,
2013-10-16 23:51:00,45.7,43.3,29.90,North,0,0.0,0.0,91,0.01,,,0.02,WUHU216HW,2013-10-17 04:51:00,
2013-10-16 23:56:00,45.7,43.3,29.90,North,0,0.0,0.0,91,0.01,,,0.02,WUHU216HW,2013-10-17 04:56:00,